createdAt,value
2023-04-03T05:31:02.303Z,12.20
2023-04-03T05:33:39.461Z,19.20
2023-04-03T05:36:11.644Z,16.00
2023-04-03T05:38:44.690Z,15.20
2023-04-03T05:41:14.850Z,17.10
2023-04-03T05:43:45.812Z,18.80
2023-04-03T05:46:16.504Z,16.30
2023-04-03T05:48:46.731Z,14.00
2023-04-03T05:51:21.059Z,16.30
2023-04-03T05:53:51.238Z,18.40
2023-04-03T05:56:21.638Z,17.40
2023-04-03T05:58:50.110Z,15.40
2023-04-03T06:01:23.878Z,14.80
2023-04-03T06:03:53.418Z,14.30
2023-04-03T06:06:23.892Z,13.00
2023-04-03T06:08:56.366Z,17.70
2023-04-03T06:11:27.066Z,15.60
2023-04-03T06:13:57.203Z,14.30
2023-04-03T06:16:25.867Z,15.30
2023-04-03T06:18:57.442Z,17.70
2023-04-03T06:21:26.315Z,13.90
2023-04-03T06:23:55.997Z,19.00
2023-04-03T06:26:25.592Z,19.30
2023-04-03T06:28:58.601Z,19.10
2023-04-03T06:31:27.545Z,22.50
2023-04-03T06:34:01.665Z,22.30
2023-04-03T06:36:34.859Z,38.70
2023-04-03T06:39:04.995Z,21.60
2023-04-03T06:44:07.470Z,19.10
2023-04-03T06:46:43.601Z,17.70
2023-04-03T06:49:14.151Z,17.90
2023-04-03T06:51:45.588Z,16.90
2023-04-03T06:54:19.679Z,18.10
2023-04-03T06:56:48.993Z,15.80
2023-04-03T06:59:19.599Z,17.20
2023-04-03T07:01:48.672Z,16.40
2023-04-03T07:04:23.072Z,16.30
2023-04-03T07:06:53.746Z,21.70
2023-04-03T07:09:22.798Z,16.90
2023-04-03T07:11:53.597Z,17.60
2023-04-03T07:14:26.856Z,18.20
2023-04-03T07:16:57.225Z,13.30
2023-04-03T07:19:31.861Z,19.10
2023-04-03T07:22:03.411Z,14.90
2023-04-03T07:24:33.988Z,13.80
2023-04-03T07:27:04.566Z,13.90
2023-04-03T07:29:37.415Z,13.30
2023-04-03T07:32:11.045Z,20.20
2023-04-03T07:34:40.829Z,13.60
2023-04-03T07:37:16.038Z,15.50
2023-04-03T07:39:46.654Z,15.40
2023-04-03T07:42:29.029Z,15.10
2023-04-03T07:44:58.270Z,16.60
2023-04-03T07:47:28.046Z,14.30
2023-04-03T07:52:35.018Z,12.20
2023-04-03T07:55:11.570Z,17.90
2023-04-03T07:57:40.186Z,15.80
2023-04-03T08:00:10.500Z,15.10
2023-04-03T08:03:04.077Z,14.30
2023-04-03T08:05:40.606Z,14.90
2023-04-03T08:08:17.432Z,13.00
2023-04-03T08:10:52.284Z,17.70
2023-04-03T08:13:26.857Z,17.80
2023-04-03T08:15:58.534Z,15.10
2023-04-03T08:18:30.048Z,15.50
2023-04-03T08:20:58.853Z,16.60
2023-04-03T08:23:27.980Z,14.80
2023-04-03T08:25:59.132Z,12.70
2023-04-03T08:28:27.873Z,15.70
2023-04-03T08:31:04.745Z,13.20
2023-04-03T08:33:37.008Z,14.20
2023-04-03T08:36:06.626Z,14.80
2023-04-03T08:41:40.163Z,18.40
2023-04-03T08:44:33.143Z,10.40
2023-04-03T08:47:21.639Z,19.20
2023-04-03T08:49:58.921Z,11.30
2023-04-03T08:52:49.481Z,16.90
2023-04-03T08:55:41.370Z,14.30
2023-04-03T09:00:51.786Z,15.80
2023-04-03T09:03:25.125Z,11.20
2023-04-03T09:06:02.609Z,10.60
2023-04-03T09:08:59.907Z,11.30
2023-04-03T09:11:57.687Z,15.50
2023-04-03T09:14:33.650Z,13.60
2023-04-03T09:17:06.935Z,12.70
2023-04-03T09:19:53.762Z,13.10
2023-04-03T09:22:27.821Z,12.80
2023-04-03T09:25:01.138Z,11.40
2023-04-03T09:27:33.601Z,10.50
2023-04-03T09:30:03.813Z,15.80
2023-04-03T09:32:38.873Z,9.90
2023-04-03T09:35:40.600Z,11.90
2023-04-03T09:38:25.509Z,9.00
2023-04-03T09:41:04.390Z,11.20
2023-04-03T09:43:45.434Z,10.20
2023-04-03T09:46:21.389Z,8.50
2023-04-03T09:51:49.538Z,7.60
2023-04-03T09:54:33.316Z,11.50
2023-04-03T09:57:17.274Z,8.10
2023-04-03T09:59:59.264Z,9.20
2023-04-03T10:02:56.914Z,7.30
2023-04-03T10:05:31.223Z,13.20
2023-04-03T10:08:18.231Z,9.50
2023-04-03T10:10:50.499Z,8.90
2023-04-03T10:13:22.815Z,12.60
2023-04-03T10:16:10.330Z,17.50
2023-04-03T10:18:57.534Z,10.10
2023-04-03T10:21:59.814Z,10.60
2023-04-03T10:25:02.979Z,7.50
2023-04-03T10:27:55.932Z,8.90
2023-04-03T10:33:32.014Z,12.90
2023-04-03T10:36:20.043Z,14.40
2023-04-03T10:39:36.397Z,9.10
2023-04-03T10:42:41.775Z,15.60
2023-04-03T10:45:28.989Z,8.40
2023-04-03T10:48:13.246Z,10.30
2023-04-03T10:51:10.692Z,9.10
2023-04-03T10:53:52.002Z,7.40
2023-04-03T10:56:33.693Z,8.60
2023-04-03T10:59:31.994Z,7.10
2023-04-03T11:02:08.446Z,7.80
2023-04-03T11:04:39.082Z,7.40
2023-04-03T11:07:26.540Z,6.60
2023-04-03T11:10:07.894Z,10.60
2023-04-03T11:19:49.282Z,8.20
2023-04-03T11:22:38.208Z,6.60
2023-04-03T11:25:14.114Z,11.50
2023-04-03T11:27:51.843Z,8.90
2023-04-03T11:30:25.456Z,8.50
2023-04-03T11:33:39.396Z,8.00
2023-04-03T11:39:14.638Z,7.90
2023-04-03T11:41:42.902Z,6.80
2023-04-03T11:44:31.242Z,10.20
2023-04-03T11:47:00.236Z,5.70
2023-04-03T11:49:52.360Z,7.40
2023-04-03T11:52:45.632Z,9.60
2023-04-03T11:55:23.358Z,5.80
2023-04-03T11:58:03.468Z,10.50
2023-04-03T12:00:57.121Z,7.30
2023-04-03T12:03:29.664Z,9.40
2023-04-03T12:06:06.131Z,10.00
2023-04-03T12:08:35.636Z,6.30
2023-04-03T12:11:12.653Z,9.30
2023-04-03T12:14:05.573Z,7.80
2023-04-03T12:16:36.243Z,12.40
2023-04-03T12:19:35.410Z,7.80
2023-04-03T12:22:14.447Z,12.10
2023-04-03T12:24:51.654Z,6.60
2023-04-03T12:27:38.991Z,7.20
2023-04-03T12:30:15.159Z,6.20
2023-04-03T12:33:09.711Z,7.50
2023-04-03T12:35:54.569Z,11.80
2023-04-03T12:38:49.620Z,8.00
2023-04-03T12:41:37.900Z,10.30
2023-04-03T12:44:20.433Z,8.50
2023-04-03T12:49:27.110Z,7.80
2023-04-03T12:51:55.329Z,7.00
2023-04-03T12:54:22.492Z,7.50
2023-04-03T12:56:55.494Z,6.50
2023-04-03T12:59:24.659Z,6.50
2023-04-03T13:01:59.154Z,5.50
2023-04-03T13:04:39.303Z,8.50
2023-04-03T13:07:37.059Z,7.00
2023-04-03T13:10:44.152Z,6.50
2023-04-03T13:13:16.250Z,10.60
2023-04-03T13:15:46.408Z,7.10
2023-04-03T13:18:27.528Z,7.20
2023-04-03T13:21:00.045Z,8.50
2023-04-03T13:23:27.986Z,6.90
2023-04-03T13:26:01.395Z,9.20
2023-04-03T13:28:30.988Z,6.30
2023-04-03T13:31:11.329Z,7.40
2023-04-03T13:33:40.091Z,9.10
2023-04-03T13:36:18.455Z,7.50
2023-04-03T13:38:46.032Z,7.20
2023-04-03T13:44:24.079Z,6.80
2023-04-03T13:46:56.634Z,6.90
2023-04-03T13:49:39.916Z,5.90
2023-04-03T13:52:31.367Z,6.50
2023-04-03T13:55:26.486Z,7.10
2023-04-03T13:57:58.928Z,5.60
2023-04-03T14:00:40.800Z,6.70
2023-04-03T14:03:21.607Z,8.30
2023-04-03T14:05:51.923Z,7.30
2023-04-03T14:08:32.319Z,8.80
2023-04-03T14:11:12.955Z,7.10
2023-04-03T14:13:40.877Z,6.50
2023-04-03T14:16:15.426Z,6.30
2023-04-03T14:18:45.125Z,7.50
2023-04-03T14:21:15.367Z,6.70
2023-04-03T14:23:44.365Z,9.10
2023-04-03T14:26:27.039Z,8.00
2023-04-03T14:28:56.784Z,5.60
2023-04-03T14:31:24.520Z,9.00
2023-04-03T14:33:55.294Z,6.20
2023-04-03T14:36:28.189Z,6.10
2023-04-03T14:38:57.937Z,5.50
2023-04-03T14:41:26.561Z,5.10
2023-04-03T14:43:57.578Z,9.20
2023-04-03T14:46:56.891Z,7.40
2023-04-03T14:49:30.783Z,6.30
2023-04-03T14:51:58.358Z,4.10
2023-04-03T14:54:27.926Z,4.60
2023-04-03T14:56:57.193Z,3.30
2023-04-03T14:59:25.503Z,5.10
2023-04-03T15:01:54.143Z,4.00
2023-04-03T15:04:21.954Z,3.80
2023-04-03T15:06:52.233Z,2.50
2023-04-03T15:09:22.469Z,3.80
2023-04-03T15:11:50.949Z,3.50
2023-04-03T15:14:29.642Z,3.00
2023-04-03T15:17:05.549Z,4.20
2023-04-03T15:19:37.680Z,3.00
2023-04-03T15:22:06.606Z,6.00
2023-04-03T15:24:33.959Z,3.70
2023-04-03T15:27:02.947Z,3.80
2023-04-03T15:29:37.638Z,3.00
2023-04-03T15:32:06.557Z,3.00
2023-04-03T15:34:36.349Z,2.90
2023-04-03T15:37:06.574Z,3.00
2023-04-03T15:39:33.924Z,3.10
2023-04-03T15:42:06.568Z,3.90
2023-04-03T15:44:40.313Z,3.10
2023-04-03T15:47:15.322Z,3.00
2023-04-03T15:49:43.015Z,3.20
2023-04-03T15:52:14.293Z,2.80
2023-04-03T15:54:41.315Z,3.20
2023-04-03T15:57:11.426Z,5.50
2023-04-03T15:59:42.292Z,6.50
2023-04-03T16:02:14.188Z,2.90
2023-04-03T16:04:42.475Z,2.10
2023-04-03T16:07:10.910Z,3.20
2023-04-03T16:09:43.635Z,1.60
2023-04-03T16:12:14.381Z,8.20
2023-04-03T16:14:47.172Z,1.90
2023-04-03T16:17:15.872Z,2.40
2023-04-03T16:19:46.096Z,2.10
2023-04-03T16:22:16.130Z,2.30
2023-04-03T16:24:44.865Z,1.70
2023-04-03T16:27:14.370Z,2.00
2023-04-03T16:29:42.543Z,2.30
2023-04-03T16:32:12.822Z,2.10
2023-04-03T16:34:42.819Z,2.40
2023-04-03T16:37:11.755Z,2.50
2023-04-03T16:39:41.812Z,1.90
2023-04-03T16:42:10.889Z,1.50
2023-04-03T16:44:40.583Z,2.40
2023-04-03T16:47:08.409Z,2.50
2023-04-03T16:49:37.035Z,1.70
2023-04-03T16:52:06.357Z,2.30
2023-04-03T16:54:39.186Z,2.40
2023-04-03T16:57:07.751Z,1.70
2023-04-03T16:59:36.706Z,2.30
2023-04-03T17:02:04.813Z,16.80
2023-04-03T17:04:35.644Z,4.60
2023-04-03T17:07:08.922Z,3.60
2023-04-03T17:09:47.317Z,1.70
2023-04-03T17:12:21.180Z,1.50
2023-04-03T17:14:48.584Z,2.10
2023-04-03T17:17:16.338Z,2.40
2023-04-03T17:19:43.614Z,1.70
2023-04-03T17:22:12.421Z,2.60
2023-04-03T17:24:39.576Z,3.90
2023-04-03T17:27:07.997Z,2.00
2023-04-03T17:29:39.793Z,1.40
2023-04-03T17:32:12.838Z,1.40
2023-04-03T17:34:40.211Z,2.30
2023-04-03T17:37:08.341Z,1.50
2023-04-03T17:39:36.624Z,1.80
2023-04-03T17:42:11.151Z,1.70
2023-04-03T17:44:44.483Z,1.70
2023-04-03T17:47:15.373Z,1.50
2023-04-03T17:49:43.650Z,3.70
2023-04-03T17:52:15.075Z,1.40
2023-04-03T17:54:43.467Z,2.70
2023-04-03T17:57:14.117Z,2.00
2023-04-03T17:59:45.020Z,3.10
2023-04-03T18:02:22.168Z,3.30
2023-04-03T18:04:56.402Z,1.50
2023-04-03T18:07:35.150Z,2.10
2023-04-03T18:10:04.925Z,1.80
2023-04-03T18:12:35.893Z,3.40
2023-04-03T18:15:09.476Z,3.30
2023-04-03T18:17:38.906Z,2.70
2023-04-03T18:20:14.045Z,4.30
2023-04-03T18:22:46.084Z,4.30
2023-04-03T18:25:13.807Z,2.10
2023-04-03T18:27:44.359Z,1.90
2023-04-03T18:30:14.246Z,1.90
2023-04-03T18:32:44.490Z,1.50
2023-04-03T18:35:14.838Z,2.50
2023-04-03T18:37:44.885Z,3.30
2023-04-03T18:40:18.791Z,2.70
2023-04-03T18:42:47.301Z,2.30
2023-04-03T18:45:18.853Z,3.60
2023-04-03T18:47:48.312Z,2.00
2023-04-03T18:50:18.546Z,2.20
2023-04-03T18:52:50.177Z,1.80
2023-04-03T18:55:20.033Z,4.10
2023-04-03T18:57:50.420Z,4.00
2023-04-03T19:00:22.924Z,2.60
2023-04-03T19:03:12.312Z,2.80
2023-04-03T19:05:40.062Z,4.40
2023-04-03T19:08:09.335Z,3.20
2023-04-03T19:10:37.796Z,3.00
2023-04-03T19:13:05.285Z,3.00
2023-04-03T19:15:33.893Z,2.50
2023-04-03T19:18:02.805Z,3.30
2023-04-03T19:20:36.832Z,5.90
2023-04-03T19:23:08.144Z,4.20
2023-04-03T19:25:35.673Z,3.40
2023-04-03T19:28:04.431Z,4.60
2023-04-03T19:30:32.697Z,2.50
2023-04-03T19:33:10.276Z,2.10
2023-04-03T19:35:40.239Z,2.40
2023-04-03T19:38:10.954Z,18.60
2023-04-03T19:40:43.275Z,2.00
2023-04-03T19:43:16.630Z,2.80
2023-04-03T19:45:47.856Z,2.60
2023-04-03T19:48:15.046Z,4.10
2023-04-03T19:50:45.525Z,3.40
2023-04-03T19:53:20.827Z,3.10
2023-04-03T19:55:49.773Z,2.30
2023-04-03T19:58:27.023Z,3.10
2023-04-03T20:00:57.389Z,3.50
2023-04-03T20:03:25.989Z,5.40
2023-04-03T20:05:53.929Z,3.40
2023-04-03T20:08:21.514Z,3.20
2023-04-03T20:10:49.871Z,4.30
2023-04-03T20:13:18.247Z,3.30
2023-04-03T20:15:47.477Z,4.60
2023-04-03T20:18:19.689Z,5.20
2023-04-03T20:21:13.404Z,4.40
2023-04-03T20:23:43.686Z,4.10
2023-04-03T20:26:15.762Z,2.70
2023-04-03T20:28:50.301Z,3.80
2023-04-03T20:31:28.706Z,3.70
2023-04-03T20:34:02.109Z,3.50
2023-04-03T20:36:32.723Z,3.60
2023-04-03T20:39:02.984Z,4.10
2023-04-03T20:41:38.150Z,3.50
2023-04-03T20:44:18.072Z,4.00
2023-04-03T20:47:13.943Z,3.90
2023-04-03T20:49:46.162Z,6.80
2023-04-03T20:52:22.160Z,3.80
2023-04-03T20:54:52.034Z,3.30
2023-04-03T20:57:28.999Z,5.80
2023-04-03T21:00:07.652Z,4.70
2023-04-03T21:02:38.208Z,3.40
2023-04-03T21:05:10.133Z,9.20
2023-04-03T21:08:25.509Z,3.60
2023-04-03T21:11:34.942Z,4.80
2023-04-03T21:14:49.148Z,5.20
2023-04-03T21:17:16.783Z,4.50
2023-04-03T21:19:48.524Z,6.60
2023-04-03T21:22:16.440Z,4.10
2023-04-03T21:24:44.033Z,3.70
2023-04-03T21:27:13.814Z,4.70
2023-04-03T21:29:43.210Z,4.80
2023-04-03T21:32:13.287Z,5.80
2023-04-03T21:34:40.720Z,3.90
2023-04-03T21:37:11.525Z,4.50
2023-04-03T21:39:45.693Z,4.10
2023-04-03T21:42:14.840Z,4.80
2023-04-03T21:44:42.829Z,6.70
2023-04-03T21:47:15.073Z,5.30
2023-04-03T21:49:44.884Z,5.00
2023-04-03T21:52:13.767Z,6.10
2023-04-03T21:54:41.878Z,4.70
2023-04-03T21:57:13.259Z,5.20
2023-04-03T21:59:48.561Z,6.50
2023-04-03T22:02:20.506Z,6.00
2023-04-03T22:11:18.464Z,5.40
2023-04-03T22:13:52.879Z,6.10
2023-04-03T22:16:25.557Z,5.20
2023-04-03T22:18:59.505Z,6.60
2023-04-03T22:21:36.901Z,5.50
2023-04-03T22:24:20.801Z,6.50
2023-04-03T22:26:51.423Z,6.90
2023-04-03T22:29:20.269Z,4.80
2023-04-03T22:31:49.481Z,6.20
2023-04-03T22:34:23.628Z,7.50
2023-04-03T22:36:54.314Z,5.40
2023-04-03T22:39:26.170Z,5.10
2023-04-03T22:41:55.309Z,5.40
2023-04-03T22:44:29.669Z,6.00
2023-04-03T22:47:01.602Z,5.90
2023-04-03T22:49:32.292Z,6.70
2023-04-03T22:52:08.288Z,4.90
2023-04-03T22:54:37.254Z,6.00
2023-04-03T22:57:07.533Z,6.40
2023-04-03T22:59:38.105Z,4.90
2023-04-03T23:02:07.157Z,4.80
2023-04-03T23:04:38.300Z,4.80
2023-04-03T23:07:08.854Z,5.00
2023-04-03T23:09:43.515Z,5.60
2023-04-03T23:12:22.718Z,5.00
2023-04-03T23:14:54.451Z,7.80
2023-04-03T23:17:24.135Z,8.30
2023-04-03T23:19:52.808Z,4.90
2023-04-03T23:22:22.937Z,5.70
2023-04-03T23:24:56.678Z,5.30
2023-04-03T23:27:29.359Z,4.30
2023-04-03T23:29:59.898Z,4.50
2023-04-03T23:32:28.444Z,3.90
2023-04-03T23:34:59.927Z,3.90
2023-04-03T23:37:30.702Z,3.50
2023-04-03T23:40:08.774Z,4.30
2023-04-03T23:42:41.745Z,4.40
2023-04-03T23:45:16.170Z,3.90
2023-04-03T23:47:48.355Z,4.70
2023-04-03T23:50:24.957Z,3.40
2023-04-03T23:52:59.831Z,3.00
2023-04-03T23:55:31.145Z,4.60
2023-04-03T23:58:02.736Z,4.30
